createdAt,value
2018-04-18T00:02:23.299Z,9.80
2018-04-18T00:04:52.259Z,9.33
2018-04-18T00:07:20.549Z,10.33
2018-04-18T00:09:48.791Z,10.17
2018-04-18T00:12:17.088Z,12.57
2018-04-18T00:14:45.366Z,14.33
2018-04-18T00:17:13.565Z,7.83
2018-04-18T00:19:42.657Z,9.83
2018-04-18T00:22:10.885Z,10.33
2018-04-18T00:24:39.087Z,7.47
2018-04-18T00:27:07.310Z,9.60
2018-04-18T00:29:35.498Z,12.40
2018-04-18T00:32:04.545Z,12.97
2018-04-18T00:34:32.748Z,11.43
2018-04-18T00:37:01.002Z,9.07
2018-04-18T00:39:30.073Z,10.80
2018-04-18T00:41:58.259Z,13.90
2018-04-18T00:44:26.493Z,14.07
2018-04-18T00:46:55.459Z,10.53
2018-04-18T00:49:23.680Z,11.10
2018-04-18T00:51:52.673Z,9.23
2018-04-18T00:54:20.933Z,9.03
2018-04-18T00:56:50.593Z,10.90
2018-04-18T00:59:18.817Z,7.90
2018-04-18T01:01:47.027Z,8.77
2018-04-18T01:04:15.325Z,10.50
2018-04-18T01:06:43.509Z,11.47
2018-04-18T01:09:11.704Z,8.53
2018-04-18T01:11:39.939Z,11.53
2018-04-18T01:14:08.135Z,8.43
2018-04-18T01:16:36.349Z,10.03
2018-04-18T01:19:04.664Z,13.10
2018-04-18T01:21:32.930Z,8.03
2018-04-18T01:24:01.154Z,9.50
2018-04-18T01:26:29.518Z,9.57
2018-04-18T01:29:01.233Z,13.63
2018-04-18T01:31:29.462Z,12.13
2018-04-18T01:33:57.702Z,11.27
2018-04-18T01:36:26.577Z,10.37
2018-04-18T01:38:54.911Z,10.23
2018-04-18T01:41:23.517Z,10.33
2018-04-18T01:43:51.875Z,7.73
2018-04-18T01:46:20.147Z,9.53
2018-04-18T01:48:49.888Z,9.37
2018-04-18T01:51:18.882Z,8.93
2018-04-18T01:53:47.124Z,12.07
2018-04-18T01:56:15.729Z,10.13
2018-04-18T01:58:43.961Z,9.80
2018-04-18T02:01:12.224Z,10.93
2018-04-18T02:03:40.826Z,8.57
2018-04-18T02:06:09.172Z,8.73
2018-04-18T02:08:37.632Z,10.23
2018-04-18T02:11:06.016Z,8.53
2018-04-18T02:13:34.645Z,8.03
2018-04-18T02:16:03.691Z,12.10
2018-04-18T02:18:31.995Z,9.77
2018-04-18T02:21:00.233Z,9.03
2018-04-18T02:23:28.537Z,10.50
2018-04-18T02:25:57.369Z,12.17
2018-04-18T02:28:26.359Z,11.33
2018-04-18T02:30:54.690Z,9.87
2018-04-18T02:33:22.947Z,12.50
2018-04-18T02:35:51.350Z,12.07
2018-04-18T02:38:19.542Z,9.83
2018-04-18T02:40:47.846Z,11.67
2018-04-18T02:43:16.877Z,9.37
2018-04-18T02:45:45.098Z,8.27
2018-04-18T02:48:13.344Z,8.67
2018-04-18T02:50:42.641Z,8.97
2018-04-18T02:53:10.857Z,11.20
2018-04-18T02:55:39.336Z,13.60
2018-04-18T02:58:08.510Z,9.47
2018-04-18T03:00:36.889Z,11.30
2018-04-18T03:03:05.266Z,12.60
2018-04-18T03:05:33.598Z,9.70
2018-04-18T03:08:02.012Z,8.17
2018-04-18T03:10:30.236Z,13.63
2018-04-18T03:12:58.480Z,9.23
2018-04-18T03:15:26.750Z,11.93
2018-04-18T03:17:55.139Z,12.63
2018-04-18T03:20:23.638Z,7.87
2018-04-18T03:22:51.896Z,10.63
2018-04-18T03:25:27.252Z,9.37
2018-04-18T03:27:55.525Z,12.33
2018-04-18T03:30:23.814Z,9.50
2018-04-18T03:32:52.681Z,6.77
2018-04-18T03:35:20.894Z,9.80
2018-04-18T03:37:49.219Z,9.43
2018-04-18T03:40:17.522Z,9.03
2018-04-18T03:42:45.747Z,10.87
2018-04-18T03:45:14.005Z,10.37
2018-04-18T03:47:42.383Z,10.57
2018-04-18T03:50:10.936Z,10.53
2018-04-18T03:52:39.238Z,10.70
2018-04-18T03:55:07.474Z,10.20
2018-04-18T03:57:35.693Z,13.33
2018-04-18T04:00:03.965Z,8.33
2018-04-18T04:02:32.243Z,8.93
2018-04-18T04:05:00.485Z,10.67
2018-04-18T04:07:28.702Z,13.33
2018-04-18T04:09:58.494Z,9.37
2018-04-18T04:12:26.872Z,11.47
2018-04-18T04:14:55.353Z,9.73
2018-04-18T04:17:35.281Z,11.50
2018-04-18T04:20:15.556Z,9.03
2018-04-18T04:22:55.571Z,12.57
2018-04-18T04:25:24.627Z,10.77
2018-04-18T04:27:53.455Z,13.63
2018-04-18T04:30:24.078Z,7.53
2018-04-18T04:32:53.215Z,11.30
2018-04-18T04:35:21.514Z,13.20
2018-04-18T04:37:49.898Z,11.03
2018-04-18T04:40:18.127Z,9.97
2018-04-18T04:42:47.137Z,10.37
2018-04-18T04:45:15.465Z,11.97
2018-04-18T04:47:43.901Z,11.80
2018-04-18T04:50:12.161Z,10.27
2018-04-18T04:52:41.314Z,10.33
2018-04-18T04:55:10.175Z,11.90
2018-04-18T04:57:38.584Z,9.93
2018-04-18T05:00:06.944Z,11.40
2018-04-18T05:02:35.239Z,9.63
2018-04-18T05:05:04.075Z,13.07
2018-04-18T05:07:33.125Z,9.73
2018-04-18T05:10:01.335Z,11.27
2018-04-18T05:12:29.619Z,10.80
2018-04-18T05:14:57.849Z,10.33
2018-04-18T05:17:26.123Z,9.67
2018-04-18T05:19:54.519Z,11.20
2018-04-18T05:22:22.947Z,12.23
2018-04-18T05:24:51.966Z,10.10
2018-04-18T05:27:20.257Z,12.50
2018-04-18T05:29:48.651Z,12.57
2018-04-18T05:32:16.905Z,8.07
2018-04-18T05:34:46.153Z,10.10
2018-04-18T05:37:14.840Z,11.83
2018-04-18T05:39:43.953Z,7.63
2018-04-18T05:42:12.989Z,7.87
2018-04-18T05:44:41.359Z,7.43
2018-04-18T05:47:10.696Z,8.93
2018-04-18T05:49:39.027Z,10.57
2018-04-18T05:52:08.047Z,11.13
2018-04-18T05:54:36.383Z,12.03
2018-04-18T05:57:04.722Z,11.77
2018-04-18T05:59:33.789Z,11.70
2018-04-18T06:02:03.648Z,17.87
2018-04-18T06:04:31.909Z,10.20
2018-04-18T06:07:00.369Z,10.80
2018-04-18T06:09:28.669Z,11.30
2018-04-18T06:11:56.893Z,11.10
2018-04-18T06:14:25.096Z,11.03
2018-04-18T06:16:53.463Z,18.23
2018-04-18T06:19:22.626Z,13.80
2018-04-18T06:21:51.089Z,10.33
2018-04-18T06:24:21.242Z,13.47
2018-04-18T06:26:49.453Z,17.43
2018-04-18T06:29:17.748Z,14.03
2018-04-18T06:31:45.981Z,13.67
2018-04-18T06:34:15.334Z,9.87
2018-04-18T06:36:43.841Z,9.70
2018-04-18T06:39:12.214Z,11.57
2018-04-18T06:41:40.758Z,9.47
2018-04-18T06:44:09.896Z,10.53
2018-04-18T06:46:38.574Z,8.57
2018-04-18T06:49:06.766Z,11.93
2018-04-18T06:51:35.132Z,12.93
2018-04-18T06:54:03.316Z,9.50
2018-04-18T06:56:31.781Z,11.57
2018-04-18T06:59:00.168Z,12.63
2018-04-18T07:01:28.479Z,15.57
2018-04-18T07:03:56.757Z,10.27
2018-04-18T07:06:25.624Z,12.03
2018-04-18T07:08:53.869Z,14.03
2018-04-18T07:11:22.993Z,14.97
2018-04-18T07:13:51.238Z,15.67
2018-04-18T07:16:19.479Z,13.67
2018-04-18T07:18:47.721Z,13.97
2018-04-18T07:21:16.113Z,17.20
2018-04-18T07:23:44.467Z,14.63
2018-04-18T07:26:12.715Z,10.83
2018-04-18T07:28:42.040Z,12.13
2018-04-18T07:31:10.258Z,13.00
2018-04-18T07:33:38.544Z,12.87
2018-04-18T07:36:06.751Z,12.67
2018-04-18T07:38:35.117Z,13.93
2018-04-18T07:41:04.106Z,9.73
2018-04-18T07:43:33.808Z,11.80
2018-04-18T07:46:02.120Z,11.10
2018-04-18T07:48:31.102Z,15.33
2018-04-18T07:50:59.798Z,10.40
2018-04-18T07:53:28.229Z,16.63
2018-04-18T07:55:56.504Z,16.53
2018-04-18T07:58:24.779Z,10.87
2018-04-18T08:00:53.104Z,15.77
2018-04-18T08:03:22.258Z,12.07
2018-04-18T08:05:50.472Z,10.53
2018-04-18T08:08:19.470Z,10.47
2018-04-18T08:10:48.465Z,14.17
2018-04-18T08:13:16.800Z,12.47
2018-04-18T08:15:45.088Z,15.50
2018-04-18T08:18:13.523Z,13.27
2018-04-18T08:20:41.799Z,15.53
2018-04-18T08:23:10.786Z,11.87
2018-04-18T08:25:39.821Z,10.07
2018-04-18T08:28:08.071Z,10.83
2018-04-18T08:30:36.376Z,15.20
2018-04-18T08:33:04.668Z,12.87
2018-04-18T08:35:32.891Z,11.80
2018-04-18T08:38:01.220Z,12.17
2018-04-18T08:40:29.601Z,14.93
2018-04-18T08:42:58.028Z,14.07
2018-04-18T08:45:26.256Z,15.77
2018-04-18T08:47:54.641Z,14.50
2018-04-18T08:50:22.845Z,10.83
2018-04-18T08:52:51.158Z,15.33
2018-04-18T08:55:19.581Z,13.67
2018-04-18T08:57:47.805Z,13.73
2018-04-18T09:00:16.300Z,9.83
2018-04-18T09:02:45.321Z,9.27
2018-04-18T09:05:13.540Z,13.60
2018-04-18T09:07:41.875Z,7.93
2018-04-18T09:12:45.565Z,7.93
2018-04-18T09:15:13.839Z,10.27
2018-04-18T09:17:43.085Z,10.63
2018-04-18T09:20:11.327Z,9.17
2018-04-18T09:22:40.320Z,10.47
2018-04-18T09:25:08.894Z,9.97
2018-04-18T09:27:37.938Z,10.63
2018-04-18T09:30:06.177Z,11.60
2018-04-18T09:32:35.161Z,12.87
2018-04-18T09:35:04.900Z,16.93
2018-04-18T09:37:33.124Z,17.40
2018-04-18T09:40:01.401Z,15.87
2018-04-18T09:42:29.860Z,17.20
2018-04-18T09:44:58.080Z,12.30
2018-04-18T09:47:26.387Z,13.07
2018-04-18T09:49:54.631Z,14.83
2018-04-18T09:52:23.633Z,14.73
2018-04-18T09:54:51.887Z,15.53
2018-04-18T09:57:20.109Z,13.20
2018-04-18T09:59:48.319Z,16.53
2018-04-18T10:02:18.308Z,12.93
2018-04-18T10:04:47.432Z,10.73
2018-04-18T10:07:15.698Z,10.70
2018-04-18T10:09:43.910Z,12.60
2018-04-18T10:12:12.153Z,7.00
2018-04-18T10:14:40.380Z,11.07
2018-04-18T10:17:09.364Z,10.47
2018-04-18T10:19:37.629Z,42.83
2018-04-18T10:22:05.822Z,38.13
2018-04-18T10:24:34.276Z,55.80
2018-04-18T10:27:02.548Z,27.10
2018-04-18T10:29:30.748Z,46.57
2018-04-18T10:31:59.116Z,32.83
2018-04-18T10:34:27.380Z,31.07
2018-04-18T10:36:55.763Z,35.27
2018-04-18T10:39:24.040Z,34.60
2018-04-18T10:41:52.449Z,28.17
2018-04-18T10:44:21.528Z,25.00
2018-04-18T10:46:49.741Z,15.27
2018-04-18T10:49:19.433Z,19.80
2018-04-18T10:51:47.626Z,28.70
2018-04-18T10:54:16.610Z,13.53
2018-04-18T10:56:46.606Z,8.77
2018-04-18T10:59:14.838Z,8.40
2018-04-18T11:01:44.100Z,7.73
2018-04-18T11:04:12.290Z,8.23
2018-04-18T11:06:41.075Z,7.57
2018-04-18T11:09:11.330Z,8.53
2018-04-18T11:11:39.562Z,7.07
2018-04-18T11:14:07.740Z,12.13
2018-04-18T11:16:35.965Z,8.30
2018-04-18T11:21:40.145Z,11.53
2018-04-18T11:24:09.319Z,9.23
2018-04-18T11:26:37.708Z,12.37
2018-04-18T11:29:05.889Z,16.37
2018-04-18T11:31:34.185Z,9.80
2018-04-18T11:34:02.543Z,8.27
2018-04-18T11:36:30.772Z,15.50
2018-04-18T11:38:59.074Z,12.60
2018-04-18T11:41:28.216Z,13.77
2018-04-18T11:43:56.446Z,11.40
2018-04-18T11:46:25.542Z,7.33
2018-04-18T11:48:53.850Z,13.67
2018-04-18T11:51:22.137Z,11.93
2018-04-18T11:53:50.425Z,10.13
2018-04-18T11:56:18.685Z,11.60
2018-04-18T11:58:46.916Z,11.77
2018-04-18T12:01:16.034Z,11.50
2018-04-18T12:03:44.807Z,13.97
2018-04-18T12:06:13.031Z,10.63
2018-04-18T12:08:41.343Z,11.70
2018-04-18T12:11:09.581Z,11.03
2018-04-18T12:13:37.866Z,13.10
2018-04-18T12:16:06.094Z,11.00
2018-04-18T12:18:34.870Z,13.37
2018-04-18T12:21:03.205Z,14.10
2018-04-18T12:23:31.447Z,14.37
2018-04-18T12:26:00.483Z,13.73
2018-04-18T12:28:28.721Z,11.07
2018-04-18T12:30:58.435Z,11.30
2018-04-18T12:33:27.448Z,12.80
2018-04-18T12:35:55.758Z,12.90
2018-04-18T12:38:23.952Z,12.13
2018-04-18T12:40:53.649Z,14.47
2018-04-18T12:43:21.992Z,11.37
2018-04-18T12:45:50.836Z,13.93
2018-04-18T12:48:19.288Z,12.70
2018-04-18T12:50:47.561Z,12.13
2018-04-18T12:53:16.079Z,11.43
2018-04-18T12:55:44.907Z,12.20
2018-04-18T12:58:13.173Z,13.87
2018-04-18T13:00:42.164Z,11.73
2018-04-18T13:03:11.124Z,12.43
2018-04-18T13:05:39.389Z,15.03
2018-04-18T13:08:07.592Z,15.10
2018-04-18T13:10:35.819Z,13.50
2018-04-18T13:13:04.018Z,12.57
2018-04-18T13:15:32.388Z,8.70
2018-04-18T13:18:00.620Z,13.20
2018-04-18T13:20:29.607Z,13.33
2018-04-18T13:22:57.991Z,14.87
2018-04-18T13:25:27.000Z,16.63
2018-04-18T13:27:55.992Z,17.23
2018-04-18T13:30:24.980Z,15.67
2018-04-18T13:32:53.997Z,16.07
2018-04-18T13:35:22.451Z,18.77
2018-04-18T13:37:51.461Z,17.80
2018-04-18T13:40:20.511Z,16.93
2018-04-18T13:42:48.783Z,17.93
2018-04-18T13:45:17.267Z,14.73
2018-04-18T13:47:45.652Z,17.60
2018-04-18T13:50:14.313Z,14.90
2018-04-18T13:52:42.612Z,19.53
2018-04-18T13:55:10.834Z,21.47
2018-04-18T13:57:39.382Z,12.97
2018-04-18T14:00:07.647Z,15.90
2018-04-18T14:02:36.128Z,16.37
2018-04-18T14:05:04.462Z,14.23
2018-04-18T14:07:33.495Z,15.97
2018-04-18T14:10:01.797Z,14.97
2018-04-18T14:12:30.109Z,12.63
2018-04-18T14:14:59.359Z,14.67
2018-04-18T14:17:27.611Z,15.30
2018-04-18T14:19:55.833Z,11.57
2018-04-18T14:22:25.219Z,11.97
2018-04-18T14:24:53.612Z,10.60
2018-04-18T14:27:21.898Z,11.93
2018-04-18T14:29:50.438Z,11.97
2018-04-18T14:32:18.761Z,12.63
2018-04-18T14:34:47.036Z,13.30
2018-04-18T14:37:15.436Z,14.37
2018-04-18T14:39:45.330Z,14.20
2018-04-18T14:42:13.618Z,16.90
2018-04-18T14:44:41.993Z,18.47
2018-04-18T14:47:10.357Z,15.37
2018-04-18T14:49:38.609Z,14.37
2018-04-18T14:52:07.009Z,15.63
2018-04-18T14:54:35.231Z,15.40
2018-04-18T14:57:03.673Z,10.93
2018-04-18T14:59:32.269Z,14.30
2018-04-18T15:02:00.493Z,11.20
2018-04-18T15:04:29.679Z,11.80
2018-04-18T15:06:58.146Z,8.83
2018-04-18T15:09:26.712Z,8.00
2018-04-18T15:11:55.121Z,9.77
2018-04-18T15:14:23.327Z,9.87
2018-04-18T15:16:51.655Z,9.63
2018-04-18T15:19:19.868Z,11.37
2018-04-18T15:21:48.178Z,11.97
2018-04-18T15:24:16.445Z,9.70
2018-04-18T15:26:44.817Z,8.90
2018-04-18T15:29:13.880Z,8.00
2018-04-18T15:31:42.380Z,11.13
2018-04-18T15:34:11.441Z,12.43
2018-04-18T15:36:39.835Z,10.93
2018-04-18T15:39:09.025Z,12.73
2018-04-18T15:41:37.275Z,12.27
2018-04-18T15:44:06.414Z,11.40
2018-04-18T15:46:34.873Z,13.40
2018-04-18T15:49:03.108Z,12.37
2018-04-18T15:51:31.588Z,14.90
2018-04-18T15:54:00.614Z,12.30
2018-04-18T15:56:28.859Z,10.77
2018-04-18T15:58:57.986Z,12.13
2018-04-18T16:01:26.955Z,13.97
2018-04-18T16:03:56.044Z,13.50
2018-04-18T16:06:25.315Z,14.13
2018-04-18T16:08:53.571Z,9.73
2018-04-18T16:11:21.800Z,12.77
2018-04-18T16:13:49.993Z,18.37
2018-04-18T16:16:19.924Z,12.80
2018-04-18T16:18:48.232Z,14.87
2018-04-18T16:21:16.499Z,13.37
2018-04-18T16:23:46.209Z,12.30
2018-04-18T16:26:15.153Z,12.10
2018-04-18T16:28:43.415Z,12.43
2018-04-18T16:31:12.515Z,12.00
2018-04-18T16:33:40.770Z,15.40
2018-04-18T16:36:09.319Z,12.03
2018-04-18T16:38:37.742Z,9.83
2018-04-18T16:41:06.821Z,10.03
2018-04-18T16:43:35.050Z,15.00
2018-04-18T16:46:03.478Z,13.47
2018-04-18T16:48:31.701Z,8.27
2018-04-18T16:51:00.757Z,13.50
2018-04-18T16:53:29.124Z,11.00
2018-04-18T16:55:57.347Z,9.30
2018-04-18T16:58:25.568Z,9.93
2018-04-18T17:00:53.816Z,11.33
2018-04-18T17:03:22.194Z,9.50
2018-04-18T17:05:51.254Z,9.80
2018-04-18T17:08:19.463Z,11.17
2018-04-18T17:10:47.717Z,12.07
2018-04-18T17:13:15.938Z,11.47
2018-04-18T17:15:44.258Z,10.67
2018-04-18T17:18:12.672Z,10.67
2018-04-18T17:20:41.701Z,11.23
2018-04-18T17:23:10.745Z,13.70
2018-04-18T17:25:38.967Z,14.43
2018-04-18T17:28:07.949Z,10.90
2018-04-18T17:30:36.225Z,10.90
2018-04-18T17:33:05.235Z,10.87
2018-04-18T17:35:33.663Z,14.37
2018-04-18T17:38:01.883Z,12.07
2018-04-18T17:40:33.368Z,15.87
2018-04-18T17:43:01.698Z,11.80
2018-04-18T17:45:30.933Z,30.80
2018-04-18T17:47:59.913Z,27.10
2018-04-18T17:50:28.900Z,29.80
2018-04-18T17:52:57.353Z,28.20
2018-04-18T17:55:26.381Z,34.20
2018-04-18T17:57:54.718Z,32.97
2018-04-18T18:00:22.998Z,22.37
2018-04-18T18:02:51.216Z,20.17
2018-04-18T18:05:19.669Z,10.77
2018-04-18T18:07:48.624Z,10.53
2018-04-18T18:10:23.356Z,14.23
2018-04-18T18:12:51.664Z,13.47
2018-04-18T18:15:20.868Z,13.33
2018-04-18T18:17:49.085Z,10.40
2018-04-18T18:20:19.030Z,16.53
2018-04-18T18:22:47.424Z,11.37
2018-04-18T18:25:15.733Z,12.07
2018-04-18T18:27:43.980Z,11.00
2018-04-18T18:30:12.218Z,12.50
2018-04-18T18:32:41.267Z,10.87
2018-04-18T18:35:09.654Z,11.80
2018-04-18T18:37:37.999Z,9.80
2018-04-18T18:40:06.399Z,10.50
2018-04-18T18:42:34.651Z,8.90
2018-04-18T18:45:03.651Z,16.13
2018-04-18T18:47:32.000Z,14.10
2018-04-18T18:50:01.058Z,20.80
2018-04-18T18:52:29.649Z,17.90
2018-04-18T18:54:58.032Z,13.13
2018-04-18T18:57:26.308Z,16.73
2018-04-18T18:59:54.587Z,11.50
2018-04-18T19:02:23.802Z,12.43
2018-04-18T19:04:52.099Z,11.40
2018-04-18T19:07:21.247Z,9.90
2018-04-18T19:09:49.509Z,9.43
2018-04-18T19:12:17.766Z,12.20
2018-04-18T19:14:46.884Z,13.37
2018-04-18T19:17:15.126Z,10.73
2018-04-18T19:19:43.343Z,12.63
2018-04-18T19:22:12.793Z,14.60
2018-04-18T19:24:41.068Z,13.97
2018-04-18T19:27:10.065Z,12.17
2018-04-18T19:29:38.344Z,9.43
2018-04-18T19:32:08.166Z,12.30
2018-04-18T19:34:36.423Z,12.70
2018-04-18T19:37:04.802Z,15.50
2018-04-18T19:39:34.680Z,13.83
2018-04-18T19:42:03.193Z,13.40
2018-04-18T19:44:31.382Z,17.30
2018-04-18T19:46:59.745Z,14.57
2018-04-18T19:49:28.023Z,17.43
2018-04-18T19:51:56.276Z,17.40
2018-04-18T19:54:24.693Z,14.80
2018-04-18T19:56:53.579Z,12.43
2018-04-18T19:59:21.972Z,16.90
2018-04-18T20:01:50.456Z,26.37
2018-04-18T20:04:18.682Z,12.30
2018-04-18T20:06:48.035Z,12.23
2018-04-18T20:09:16.249Z,13.20
2018-04-18T20:11:44.574Z,12.87
2018-04-18T20:14:12.869Z,13.60
2018-04-18T20:16:41.133Z,16.23
2018-04-18T20:19:09.362Z,11.93
2018-04-18T20:21:37.599Z,18.03
2018-04-18T20:24:08.081Z,16.33
2018-04-18T20:26:42.022Z,15.37
2018-04-18T20:29:13.175Z,16.17
2018-04-18T20:31:46.670Z,16.50
2018-04-18T20:34:17.622Z,18.40
2018-04-18T20:36:53.490Z,19.77
2018-04-18T20:39:23.253Z,16.27
2018-04-18T20:41:55.407Z,19.43
2018-04-18T20:44:25.099Z,22.40
2018-04-18T20:46:54.934Z,19.40
2018-04-18T20:49:23.223Z,17.70
2018-04-18T20:51:52.214Z,17.47
2018-04-18T20:54:20.423Z,15.87
2018-04-18T20:56:48.922Z,21.00
2018-04-18T20:59:17.137Z,19.53
2018-04-18T21:01:46.156Z,15.17
2018-04-18T21:04:15.192Z,16.73
2018-04-18T21:06:43.466Z,19.73
2018-04-18T21:09:11.701Z,20.33
2018-04-18T21:11:39.935Z,21.53
2018-04-18T21:14:08.140Z,19.70
2018-04-18T21:16:36.348Z,19.23
2018-04-18T21:19:05.291Z,20.00
2018-04-18T21:21:33.643Z,17.53
2018-04-18T21:24:01.875Z,18.17
2018-04-18T21:26:30.919Z,16.30
2018-04-18T21:28:59.143Z,21.17
2018-04-18T21:31:28.101Z,19.93
2018-04-18T21:33:57.428Z,18.00
2018-04-18T21:36:25.787Z,18.00
2018-04-18T21:38:54.170Z,16.60
2018-04-18T21:41:22.482Z,18.63
2018-04-18T21:43:50.843Z,19.50
2018-04-18T21:46:19.852Z,17.20
2018-04-18T21:48:48.912Z,17.63
2018-04-18T21:51:17.197Z,22.20
2018-04-18T21:53:45.538Z,17.23
2018-04-18T21:56:13.837Z,16.73
2018-04-18T21:58:42.216Z,17.33
2018-04-18T22:01:10.605Z,17.40
2018-04-18T22:03:39.562Z,19.30
2018-04-18T22:06:07.848Z,15.00
2018-04-18T22:08:36.265Z,18.60
2018-04-18T22:11:04.561Z,15.87
2018-04-18T22:13:34.312Z,16.20
2018-04-18T22:16:02.756Z,17.10
2018-04-18T22:18:31.723Z,16.67
2018-04-18T22:21:00.196Z,17.27
2018-04-18T22:23:29.601Z,20.47
2018-04-18T22:25:57.878Z,18.80
2018-04-18T22:28:26.136Z,19.87
2018-04-18T22:30:54.542Z,21.53
2018-04-18T22:33:22.886Z,16.53
2018-04-18T22:35:52.032Z,20.10
2018-04-18T22:38:20.305Z,18.63
2018-04-18T22:40:49.559Z,15.20
2018-04-18T22:43:19.018Z,15.30
2018-04-18T22:45:48.955Z,15.53
2018-04-18T22:48:18.127Z,22.53
2018-04-18T22:50:46.392Z,22.33
2018-04-18T22:53:14.866Z,19.07
2018-04-18T22:55:43.098Z,23.60
2018-04-18T22:58:12.076Z,22.23
2018-04-18T23:00:40.934Z,21.93
2018-04-18T23:03:09.231Z,24.30
2018-04-18T23:05:37.463Z,19.10
2018-04-18T23:08:07.011Z,17.00
2018-04-18T23:10:35.270Z,21.07
2018-04-18T23:13:03.532Z,20.37
2018-04-18T23:15:31.812Z,19.03
2018-04-18T23:18:00.041Z,24.10
2018-04-18T23:20:28.298Z,21.43
2018-04-18T23:22:56.618Z,18.40
2018-04-18T23:25:25.645Z,22.17
2018-04-18T23:27:53.958Z,21.27
2018-04-18T23:30:33.784Z,22.23
2018-04-18T23:33:05.341Z,22.90
2018-04-18T23:35:33.611Z,18.30
2018-04-18T23:38:02.543Z,26.03
2018-04-18T23:40:30.966Z,22.70
2018-04-18T23:42:59.952Z,23.33
2018-04-18T23:45:28.392Z,19.93
2018-04-18T23:47:57.835Z,23.17
2018-04-18T23:50:27.008Z,19.63
2018-04-18T23:52:56.395Z,18.47
2018-04-18T23:55:24.643Z,24.60
2018-04-18T23:57:52.855Z,23.93
